Time;durP1;ratioP1;P1;durP2;ratioP2;P2;SDS_P1;SDS_P2;PMS_P1;PMS_P2;Temp;Humidity;BMP_temperature;BMP_pressure;BME280_temperature;BME280_humidity;BME280_pressure;Samples;Min_cycle;Max_cycle;Signal;HPM_P1;HPM_P2
2020/12/18 00:02:07;;;;;;;10.07;5.80;;;;;;;;;;10375496;28;20041;-63
2020/12/18 00:07:05;;;;;;;15.60;8.10;;;;;;;;;;10375034;28;20040;-63
2020/12/18 00:12:02;;;;;;;11.57;5.40;;;;;;;;;;10326238;28;20036;-64
2020/12/18 00:17:00;;;;;;;12.80;6.00;;;;;;;;;;10360382;28;20040;-64
2020/12/18 00:21:57;;;;;;;11.97;6.53;;;;;;;;;;10340061;28;20106;-63
2020/12/18 00:26:55;;;;;;;10.93;6.13;;;;;;;;;;10356104;28;20122;-63
2020/12/18 00:31:52;;;;;;;15.43;5.93;;;;;;;;;;10375592;28;20033;-64
2020/12/18 00:36:51;;;;;;;13.67;6.03;;;;;;;;;;10352956;28;20222;-63
2020/12/18 00:41:54;;;;;;;15.07;6.90;;;;;;;;;;10350615;28;20430;-64
2020/12/18 00:46:51;;;;;;;14.07;5.05;;;;;;;;;;10352644;28;20036;-63
2020/12/18 00:51:53;;;;;;;10.07;4.73;;;;;;;;;;10365228;28;20055;-64
2020/12/18 00:56:52;;;;;;;18.48;7.57;;;;;;;;;;10358955;28;20477;-64
2020/12/18 01:01:55;;;;;;;11.87;5.03;;;;;;;;;;10367265;28;20040;-64
2020/12/18 01:06:54;;;;;;;11.80;5.47;;;;;;;;;;10361892;28;20044;-64
2020/12/18 01:11:52;;;;;;;13.05;5.72;;;;;;;;;;10365968;28;20055;-64
2020/12/18 01:16:51;;;;;;;13.15;5.75;;;;;;;;;;10362212;28;20437;-63
2020/12/18 01:21:49;;;;;;;14.27;5.18;;;;;;;;;;10361640;28;20079;-64
2020/12/18 01:26:50;;;;;;;12.10;6.25;;;;;;;;;;10351535;28;20028;-63
2020/12/18 01:31:48;;;;;;;7.60;4.78;;;;;;;;;;10332794;28;20068;-64
2020/12/18 01:36:46;;;;;;;13.07;5.87;;;;;;;;;;10362610;28;20487;-64
2020/12/18 01:41:56;;;;;;;10.75;4.35;;;;;;;;;;10349751;28;20124;-64
2020/12/18 01:46:54;;;;;;;11.77;4.07;;;;;;;;;;10358393;28;20119;-63
2020/12/18 01:51:53;;;;;;;12.55;4.82;;;;;;;;;;10365318;28;20029;-63
2020/12/18 01:57:10;;;;;;;16.08;5.22;;;;;;;;;;10347301;28;20029;-64
2020/12/18 02:02:21;;;;;;;13.38;4.10;;;;;;;;;;10361099;28;20037;-64
2020/12/18 02:07:31;;;;;;;10.35;4.88;;;;;;;;;;10330552;28;20179;-65
2020/12/18 02:12:51;;;;;;;11.00;4.38;;;;;;;;;;10309429;28;20540;-64
2020/12/18 02:17:49;;;;;;;9.27;4.73;;;;;;;;;;10348640;28;20094;-66
2020/12/18 02:22:47;;;;;;;14.93;4.57;;;;;;;;;;10309117;28;20033;-66
2020/12/18 02:27:51;;;;;;;8.13;4.00;;;;;;;;;;10325323;28;20033;-67
2020/12/18 02:32:52;;;;;;;13.40;4.65;;;;;;;;;;10359893;28;20541;-66
2020/12/18 02:37:52;;;;;;;14.33;5.00;;;;;;;;;;10367515;28;20437;-66
2020/12/18 02:42:57;;;;;;;9.73;5.13;;;;;;;;;;10343670;28;20044;-66
2020/12/18 02:47:58;;;;;;;11.30;4.78;;;;;;;;;;10356599;28;20034;-64
2020/12/18 02:53:18;;;;;;;8.45;4.65;;;;;;;;;;10351719;28;20831;-66
2020/12/18 02:58:34;;;;;;;7.82;4.40;;;;;;;;;;10344686;28;20609;-63
2020/12/18 03:03:32;;;;;;;6.95;4.03;;;;;;;;;;10357061;28;20033;-66
2020/12/18 03:09:00;;;;;;;9.30;4.43;;;;;;;;;;10330434;28;20053;-63
2020/12/18 03:13:57;;;;;;;9.90;4.73;;;;;;;;;;10319270;28;20114;-67
2020/12/18 03:19:00;;;;;;;7.20;4.70;;;;;;;;;;10359642;28;20421;-65
2020/12/18 03:23:58;;;;;;;12.90;5.23;;;;;;;;;;10351662;28;20028;-65
2020/12/18 03:29:13;;;;;;;10.93;5.15;;;;;;;;;;10364017;28;20024;-65
2020/12/18 03:34:11;;;;;;;11.40;5.97;;;;;;;;;;10351017;28;20032;-65
2020/12/18 03:39:18;;;;;;;7.88;4.28;;;;;;;;;;10364047;28;20526;-64
2020/12/18 03:44:42;;;;;;;10.05;5.07;;;;;;;;;;10370337;28;20033;-64
2020/12/18 03:49:39;;;;;;;8.17;4.53;;;;;;;;;;10357237;28;20117;-65
2020/12/18 03:54:37;;;;;;;7.63;4.23;;;;;;;;;;10369792;28;20043;-65
2020/12/18 03:59:49;;;;;;;11.07;5.53;;;;;;;;;;10340581;28;20503;-64
2020/12/18 04:05:12;;;;;;;7.18;4.60;;;;;;;;;;10357612;28;20028;-64
2020/12/18 04:10:12;;;;;;;9.95;5.55;;;;;;;;;;10369022;28;20032;-65
2020/12/18 04:15:24;;;;;;;7.60;3.90;;;;;;;;;;10362466;28;20079;-65
2020/12/18 04:20:23;;;;;;;13.50;6.78;;;;;;;;;;10355223;28;20099;-66
2020/12/18 04:25:40;;;;;;;11.85;5.57;;;;;;;;;;10353859;28;20087;-65
2020/12/18 04:30:38;;;;;;;7.40;4.30;;;;;;;;;;10362949;28;20044;-65
2020/12/18 04:35:36;;;;;;;11.68;5.32;;;;;;;;;;10353710;28;20066;-64
2020/12/18 04:40:42;;;;;;;6.60;4.88;;;;;;;;;;10347533;28;20534;-64
2020/12/18 04:45:56;;;;;;;8.52;4.68;;;;;;;;;;10354567;28;20033;-64
2020/12/18 04:50:57;;;;;;;10.70;5.68;;;;;;;;;;10366011;28;20151;-65
2020/12/18 04:56:05;;;;;;;12.63;4.03;;;;;;;;;;10362255;28;20033;-64
2020/12/18 05:01:10;;;;;;;10.30;5.38;;;;;;;;;;10345481;28;20053;-64
2020/12/18 05:06:16;;;;;;;9.80;4.05;;;;;;;;;;10370425;28;20036;-64
2020/12/18 05:11:19;;;;;;;8.73;4.50;;;;;;;;;;10333052;28;20040;-63
2020/12/18 05:16:20;;;;;;;8.57;4.53;;;;;;;;;;10324550;28;20028;-65
2020/12/18 05:21:39;;;;;;;11.00;4.70;;;;;;;;;;10356021;28;20415;-66
2020/12/18 05:26:40;;;;;;;10.75;5.22;;;;;;;;;;10308392;28;20518;-66
2020/12/18 05:31:43;;;;;;;6.25;5.03;;;;;;;;;;10351124;28;20180;-63
2020/12/18 05:36:47;;;;;;;10.02;6.40;;;;;;;;;;10345468;28;20048;-66
2020/12/18 05:41:55;;;;;;;12.25;6.72;;;;;;;;;;10361984;28;20549;-66
2020/12/18 05:47:02;;;;;;;11.05;5.53;;;;;;;;;;10356303;28;20033;-66
2020/12/18 05:52:03;;;;;;;15.55;6.85;;;;;;;;;;10341638;28;20036;-65
2020/12/18 05:57:33;;;;;;;17.63;7.95;;;;;;;;;;10356728;28;20056;-66
2020/12/18 06:02:35;;;;;;;11.82;8.07;;;;;;;;;;10339968;28;20037;-66
2020/12/18 06:07:40;;;;;;;15.63;8.15;;;;;;;;;;10353662;28;20475;-63
2020/12/18 06:12:47;;;;;;;14.23;6.97;;;;;;;;;;10364289;28;20449;-66
2020/12/18 06:17:45;;;;;;;16.15;8.27;;;;;;;;;;10347711;28;20120;-65
2020/12/18 06:22:58;;;;;;;17.65;9.23;;;;;;;;;;10306254;28;20392;-63
2020/12/18 06:28:34;;;;;;;17.77;9.05;;;;;;;;;;10318565;28;20029;-65
2020/12/18 06:33:50;;;;;;;15.98;8.48;;;;;;;;;;10316987;28;20037;-63
2020/12/18 06:39:22;;;;;;;19.85;9.95;;;;;;;;;;10320356;28;20056;-66
2020/12/18 06:44:37;;;;;;;18.50;10.25;;;;;;;;;;10350925;28;20094;-65
2020/12/18 06:49:54;;;;;;;20.73;10.60;;;;;;;;;;10354782;28;20036;-63
2020/12/18 06:55:35;;;;;;;23.20;10.85;;;;;;;;;;10365610;28;20086;-66
2020/12/18 07:01:10;;;;;;;19.17;10.30;;;;;;;;;;10307681;28;20045;-66
2020/12/18 07:06:12;;;;;;;15.80;8.93;;;;;;;;;;10341973;28;20090;-67
2020/12/18 07:11:14;;;;;;;18.13;8.57;;;;;;;;;;10361314;28;20045;-65
2020/12/18 07:16:14;;;;;;;16.95;9.13;;;;;;;;;;10364230;28;20032;-65
2020/12/18 07:21:13;;;;;;;21.15;9.45;;;;;;;;;;10325513;28;20044;-63
2020/12/18 07:26:12;;;;;;;16.25;9.32;;;;;;;;;;10372925;28;20037;-67
2020/12/18 07:31:17;;;;;;;21.52;10.55;;;;;;;;;;10368992;28;20059;-66
2020/12/18 07:36:15;;;;;;;18.75;9.65;;;;;;;;;;10367428;28;20037;-65
2020/12/18 07:41:16;;;;;;;20.57;9.17;;;;;;;;;;10357405;28;20036;-66
2020/12/18 07:46:16;;;;;;;24.25;13.45;;;;;;;;;;10372820;28;20029;-66
2020/12/18 07:51:18;;;;;;;15.95;10.07;;;;;;;;;;10358977;28;20123;-66
2020/12/18 07:56:17;;;;;;;21.90;10.65;;;;;;;;;;10358620;28;20028;-66
2020/12/18 08:01:16;;;;;;;18.38;9.52;;;;;;;;;;10369490;28;20521;-66
2020/12/18 08:06:14;;;;;;;16.83;9.25;;;;;;;;;;10369258;28;20064;-66
2020/12/18 08:11:12;;;;;;;19.50;10.77;;;;;;;;;;10363634;28;20052;-65
2020/12/18 08:16:14;;;;;;;20.05;9.75;;;;;;;;;;10374219;28;20036;-65
2020/12/18 08:21:11;;;;;;;17.67;10.50;;;;;;;;;;10375629;28;20055;-65
2020/12/18 08:26:09;;;;;;;19.47;9.53;;;;;;;;;;10357064;28;20044;-66
2020/12/18 08:31:08;;;;;;;15.32;8.50;;;;;;;;;;10361122;28;20125;-65
2020/12/18 08:36:06;;;;;;;18.25;9.40;;;;;;;;;;10364406;28;20465;-65
2020/12/18 08:41:04;;;;;;;18.25;8.75;;;;;;;;;;10354318;28;20383;-65
2020/12/18 08:46:01;;;;;;;17.67;9.67;;;;;;;;;;10349088;28;20037;-65
2020/12/18 08:51:02;;;;;;;22.20;9.13;;;;;;;;;;10350318;28;20040;-65
2020/12/18 08:56:03;;;;;;;17.42;9.77;;;;;;;;;;10346455;28;20048;-66
2020/12/18 09:01:01;;;;;;;17.08;8.68;;;;;;;;;;10358610;28;20043;-66
2020/12/18 09:06:08;;;;;;;20.33;10.67;;;;;;;;;;10363601;28;20033;-66
2020/12/18 09:11:06;;;;;;;15.68;8.48;;;;;;;;;;10378746;28;20466;-63
2020/12/18 09:16:04;;;;;;;15.13;8.03;;;;;;;;;;10370067;28;20036;-63
2020/12/18 09:21:08;;;;;;;14.70;8.18;;;;;;;;;;10366056;28;20050;-66
2020/12/18 09:26:05;;;;;;;17.42;8.43;;;;;;;;;;10358201;28;20036;-64
2020/12/18 09:31:04;;;;;;;15.83;7.27;;;;;;;;;;10366043;28;20062;-63
2020/12/18 09:36:01;;;;;;;;;;;;;;;;;;10361220;28;20037;-64
2020/12/18 09:41:03;;;;;;;19.00;7.90;;;;;;;;;;10360129;28;19920;-64
2020/12/18 09:46:00;;;;;;;11.32;7.18;;;;;;;;;;10365133;28;20346;-63
2020/12/18 09:50:58;;;;;;;12.73;6.80;;;;;;;;;;10358938;28;20037;-66
2020/12/18 09:55:56;;;;;;;10.23;5.65;;;;;;;;;;10365428;28;20033;-63
2020/12/18 10:00:54;;;;;;;13.07;5.97;;;;;;;;;;10354200;28;20043;-64
2020/12/18 10:05:51;;;;;;;8.20;5.90;;;;;;;;;;10365403;28;20849;-64
2020/12/18 10:10:49;;;;;;;12.60;6.03;;;;;;;;;;10358114;28;20454;-64
2020/12/18 10:15:48;;;;;;;18.13;5.10;;;;;;;;;;10361081;28;20032;-64
2020/12/18 10:20:45;;;;;;;10.18;5.05;;;;;;;;;;10361456;28;20375;-66
2020/12/18 10:25:44;;;;;;;12.73;6.07;;;;;;;;;;10323018;28;20056;-64
2020/12/18 10:30:42;;;;;;;11.33;5.40;;;;;;;;;;10352009;28;20040;-64
2020/12/18 10:35:40;;;;;;;7.57;4.45;;;;;;;;;;10360710;28;20885;-66
2020/12/18 10:40:37;;;;;;;9.97;4.40;;;;;;;;;;10358072;28;21216;-66
2020/12/18 10:45:35;;;;;;;5.73;3.33;;;;;;;;;;10371300;28;20032;-64
2020/12/18 10:50:32;;;;;;;9.10;4.37;;;;;;;;;;10366217;28;20039;-64
2020/12/18 10:55:30;;;;;;;6.97;3.73;;;;;;;;;;10352378;28;20182;-64
2020/12/18 11:00:27;;;;;;;10.03;4.03;;;;;;;;;;10353505;28;20040;-63
2020/12/18 11:05:24;;;;;;;6.40;3.47;;;;;;;;;;10366491;28;20059;-66
2020/12/18 11:10:22;;;;;;;6.97;3.33;;;;;;;;;;10355279;28;20040;-64
2020/12/18 11:15:19;;;;;;;11.53;3.83;;;;;;;;;;10346695;28;20033;-63
2020/12/18 11:20:16;;;;;;;5.13;2.43;;;;;;;;;;10365277;28;20036;-63
2020/12/18 11:25:14;;;;;;;7.07;3.27;;;;;;;;;;10370793;28;20051;-64
2020/12/18 11:30:11;;;;;;;4.50;2.80;;;;;;;;;;10375082;28;20413;-64
2020/12/18 11:35:08;;;;;;;4.33;2.90;;;;;;;;;;10369065;28;20050;-64
2020/12/18 11:40:07;;;;;;;9.10;3.50;;;;;;;;;;10370874;28;20506;-64
2020/12/18 11:45:04;;;;;;;;;;;;;;;;;;10381477;28;20036;-64
2020/12/18 11:50:02;;;;;;;12.45;3.20;;;;;;;;;;10381857;28;19912;-63
2020/12/18 11:54:59;;;;;;;3.23;2.20;;;;;;;;;;10377308;28;20128;-62
2020/12/18 11:59:57;;;;;;;8.27;2.33;;;;;;;;;;10364687;28;20037;-64
2020/12/18 12:04:54;;;;;;;3.33;1.60;;;;;;;;;;10370815;28;20025;-64
2020/12/18 12:09:51;;;;;;;5.23;2.03;;;;;;;;;;10370400;28;20375;-64
2020/12/18 12:14:49;;;;;;;2.87;1.93;;;;;;;;;;10368331;28;20040;-64
2020/12/18 12:19:46;;;;;;;7.50;2.17;;;;;;;;;;10343451;28;20037;-64
2020/12/18 12:24:44;;;;;;;4.93;2.67;;;;;;;;;;10330831;28;20106;-63
2020/12/18 12:29:41;;;;;;;4.37;1.77;;;;;;;;;;10324349;28;20041;-64
2020/12/18 12:34:38;;;;;;;3.83;1.67;;;;;;;;;;10325187;28;20120;-66
2020/12/18 12:39:36;;;;;;;6.77;2.53;;;;;;;;;;10333352;28;20037;-64
2020/12/18 12:44:34;;;;;;;6.00;1.70;;;;;;;;;;10322224;28;20048;-63
2020/12/18 12:49:31;;;;;;;6.13;1.97;;;;;;;;;;10311719;28;20119;-64
2020/12/18 12:54:28;;;;;;;2.43;1.80;;;;;;;;;;10318380;28;20265;-63
2020/12/18 12:59:26;;;;;;;2.43;1.47;;;;;;;;;;10324072;28;20036;-64
2020/12/18 13:04:25;;;;;;;3.83;1.57;;;;;;;;;;10310465;28;21310;-63
2020/12/18 13:09:23;;;;;;;9.48;2.67;;;;;;;;;;10317390;28;20036;-64
2020/12/18 13:14:20;;;;;;;5.73;2.83;;;;;;;;;;10312990;28;20036;-63
2020/12/18 13:19:17;;;;;;;6.17;2.73;;;;;;;;;;10307455;28;20067;-64
2020/12/18 13:24:15;;;;;;;5.20;3.90;;;;;;;;;;10305502;28;20056;-64
2020/12/18 13:29:12;;;;;;;5.77;3.83;;;;;;;;;;10316508;28;21069;-63
2020/12/18 13:34:09;;;;;;;5.00;3.23;;;;;;;;;;10331398;28;20124;-64
2020/12/18 13:39:07;;;;;;;7.67;2.63;;;;;;;;;;10328968;28;20473;-66
2020/12/18 13:44:04;;;;;;;7.43;4.57;;;;;;;;;;10321856;28;20039;-64
2020/12/18 13:49:02;;;;;;;7.80;4.83;;;;;;;;;;10308602;28;20033;-64
2020/12/18 13:53:59;;;;;;;8.23;4.73;;;;;;;;;;10308481;28;20095;-66
2020/12/18 13:58:57;;;;;;;15.70;5.50;;;;;;;;;;10311299;28;20072;-63
2020/12/18 14:03:54;;;;;;;5.27;4.37;;;;;;;;;;10311886;28;20041;-64
2020/12/18 14:08:51;;;;;;;12.27;5.77;;;;;;;;;;10302481;28;20159;-64
2020/12/18 14:13:51;;;;;;;7.70;5.73;;;;;;;;;;10325353;28;20302;-67
2020/12/18 14:18:48;;;;;;;7.63;5.07;;;;;;;;;;10330628;28;20064;-66
2020/12/18 14:23:46;;;;;;;9.40;3.77;;;;;;;;;;10351783;28;20060;-65
2020/12/18 14:28:43;;;;;;;9.47;4.47;;;;;;;;;;10351549;28;20029;-66
2020/12/18 14:33:41;;;;;;;6.17;3.37;;;;;;;;;;10359040;28;20653;-65
2020/12/18 14:38:38;;;;;;;6.40;3.43;;;;;;;;;;10346202;28;20048;-65
2020/12/18 14:43:36;;;;;;;8.17;4.70;;;;;;;;;;10352843;28;20041;-66
2020/12/18 14:48:33;;;;;;;6.83;4.17;;;;;;;;;;10361829;28;20091;-65
2020/12/18 14:53:30;;;;;;;8.13;4.27;;;;;;;;;;10335019;28;20028;-65
2020/12/18 14:58:28;;;;;;;7.00;4.13;;;;;;;;;;10352593;28;20081;-65
2020/12/18 15:03:25;;;;;;;4.70;3.83;;;;;;;;;;10369502;28;20465;-65
2020/12/18 15:08:23;;;;;;;6.43;3.47;;;;;;;;;;10373934;28;20038;-66
2020/12/18 15:13:20;;;;;;;4.73;3.87;;;;;;;;;;10374205;28;20029;-65
2020/12/18 15:18:17;;;;;;;6.23;3.27;;;;;;;;;;10366073;28;20040;-65
2020/12/18 15:23:15;;;;;;;12.43;3.53;;;;;;;;;;10358084;28;20052;-65
2020/12/18 15:28:12;;;;;;;6.67;3.13;;;;;;;;;;10363601;28;20032;-66
2020/12/18 15:33:09;;;;;;;8.93;3.50;;;;;;;;;;10360873;28;20459;-66
2020/12/18 15:38:07;;;;;;;5.60;2.90;;;;;;;;;;10380027;28;20040;-65
2020/12/18 15:43:04;;;;;;;8.17;3.50;;;;;;;;;;10375972;28;20483;-65
2020/12/18 15:48:01;;;;;;;8.20;2.83;;;;;;;;;;10380656;28;20551;-65
2020/12/18 15:53:00;;;;;;;4.23;2.43;;;;;;;;;;10335328;28;20111;-65
2020/12/18 15:57:57;;;;;;;5.88;2.63;;;;;;;;;;10358737;28;20051;-64
2020/12/18 16:02:55;;;;;;;12.73;2.60;;;;;;;;;;10367966;28;20056;-65
2020/12/18 16:07:52;;;;;;;8.87;2.80;;;;;;;;;;10364903;28;20025;-65
2020/12/18 16:12:49;;;;;;;4.63;3.17;;;;;;;;;;10355301;28;20186;-65
2020/12/18 16:17:47;;;;;;;6.10;2.07;;;;;;;;;;10370609;28;20033;-65
2020/12/18 16:22:44;;;;;;;4.17;2.87;;;;;;;;;;10364906;28;20033;-65
2020/12/18 16:27:42;;;;;;;6.43;3.27;;;;;;;;;;10324686;28;20025;-65
2020/12/18 16:32:39;;;;;;;4.93;2.63;;;;;;;;;;10328191;28;20425;-64
2020/12/18 16:37:36;;;;;;;4.97;1.97;;;;;;;;;;10348205;28;20114;-65
2020/12/18 16:42:34;;;;;;;6.50;2.20;;;;;;;;;;10360941;28;20072;-65
2020/12/18 16:47:32;;;;;;;6.13;2.93;;;;;;;;;;10348359;28;20546;-66
2020/12/18 16:52:32;;;;;;;6.33;2.93;;;;;;;;;;10356997;28;20054;-64
2020/12/18 16:57:30;;;;;;;6.68;2.65;;;;;;;;;;10349695;28;20049;-64
2020/12/18 17:02:28;;;;;;;4.10;2.78;;;;;;;;;;10354553;28;20037;-65
2020/12/18 17:07:26;;;;;;;1.33;1.23;;;;;;;;;;10363221;28;20033;-65
2020/12/18 17:12:24;;;;;;;6.45;3.05;;;;;;;;;;10361744;28;21166;-65
2020/12/18 17:17:21;;;;;;;4.37;1.80;;;;;;;;;;10353009;28;20055;-65
2020/12/18 17:22:19;;;;;;;3.30;2.63;;;;;;;;;;10367927;28;20044;-64
2020/12/18 17:27:22;;;;;;;5.60;2.40;;;;;;;;;;10368388;28;20033;-65
2020/12/18 17:32:20;;;;;;;6.45;2.83;;;;;;;;;;10351964;28;20067;-65
2020/12/18 17:37:17;;;;;;;6.20;3.53;;;;;;;;;;10338427;28;20575;-65
2020/12/18 17:42:14;;;;;;;12.67;6.27;;;;;;;;;;10330692;28;21272;-65
2020/12/18 17:47:12;;;;;;;13.70;6.73;;;;;;;;;;10329675;28;20083;-64
2020/12/18 17:52:09;;;;;;;12.77;5.23;;;;;;;;;;10341631;28;20052;-65
2020/12/18 17:57:07;;;;;;;5.57;3.43;;;;;;;;;;10351459;28;20448;-65
2020/12/18 18:02:04;;;;;;;4.80;3.60;;;;;;;;;;10367036;28;20093;-65
2020/12/18 18:07:02;;;;;;;2.73;2.20;;;;;;;;;;10366189;28;20032;-65
2020/12/18 18:12:00;;;;;;;5.70;2.40;;;;;;;;;;10354672;28;20116;-65
2020/12/18 18:16:57;;;;;;;8.57;3.83;;;;;;;;;;10370557;28;20329;-64
2020/12/18 18:21:55;;;;;;;9.50;3.40;;;;;;;;;;10366586;28;20414;-64
2020/12/18 18:26:56;;;;;;;9.80;2.37;;;;;;;;;;10354707;28;20620;-65
2020/12/18 18:31:53;;;;;;;2.83;2.38;;;;;;;;;;10362410;28;20098;-64
2020/12/18 18:36:51;;;;;;;4.00;2.30;;;;;;;;;;10341380;28;20085;-64
2020/12/18 18:41:48;;;;;;;4.10;2.13;;;;;;;;;;10368202;28;20035;-64
2020/12/18 18:46:46;;;;;;;4.60;1.73;;;;;;;;;;10363578;28;20021;-64
2020/12/18 18:51:43;;;;;;;1.97;1.77;;;;;;;;;;10360692;28;20036;-64
2020/12/18 18:56:41;;;;;;;1.57;1.47;;;;;;;;;;10355541;28;20615;-64
2020/12/18 19:01:39;;;;;;;1.77;1.57;;;;;;;;;;10356456;28;20693;-65
2020/12/18 19:06:40;;;;;;;11.07;2.10;;;;;;;;;;10354176;28;20095;-64
2020/12/18 19:11:38;;;;;;;2.63;1.27;;;;;;;;;;10363065;28;20125;-64
2020/12/18 19:16:36;;;;;;;2.80;1.83;;;;;;;;;;10352100;28;20123;-65
2020/12/18 19:21:35;;;;;;;4.25;2.38;;;;;;;;;;10317600;28;20052;-65
2020/12/18 19:26:32;;;;;;;4.70;1.70;;;;;;;;;;10355818;28;20491;-64
2020/12/18 19:31:31;;;;;;;4.73;2.67;;;;;;;;;;10321258;28;20064;-64
2020/12/18 19:36:28;;;;;;;9.13;3.78;;;;;;;;;;10355029;28;20029;-64
2020/12/18 19:41:32;;;;;;;4.33;2.53;;;;;;;;;;10340315;28;20041;-64
2020/12/18 19:46:30;;;;;;;9.27;2.00;;;;;;;;;;10365416;28;20244;-65
2020/12/18 19:51:28;;;;;;;3.20;2.40;;;;;;;;;;10366016;28;20037;-65
2020/12/18 19:56:35;;;;;;;9.43;3.17;;;;;;;;;;10318493;28;20044;-65
2020/12/18 20:01:36;;;;;;;3.60;1.80;;;;;;;;;;10321579;28;20045;-65
2020/12/18 20:06:33;;;;;;;4.72;2.28;;;;;;;;;;10324687;28;20033;-64
2020/12/18 20:11:31;;;;;;;2.47;2.27;;;;;;;;;;10315502;28;20047;-64
2020/12/18 20:16:28;;;;;;;2.43;2.20;;;;;;;;;;10316026;28;20087;-64
2020/12/18 20:21:27;;;;;;;4.30;2.27;;;;;;;;;;10312206;28;20117;-65
2020/12/18 20:26:26;;;;;;;4.25;2.75;;;;;;;;;;10309960;28;20124;-64
2020/12/18 20:31:23;;;;;;;3.75;2.65;;;;;;;;;;10298376;28;20561;-64
2020/12/18 20:36:22;;;;;;;6.13;2.63;;;;;;;;;;10318550;28;20055;-62
2020/12/18 20:41:19;;;;;;;5.00;2.85;;;;;;;;;;10345359;28;20044;-65
2020/12/18 20:46:17;;;;;;;7.37;3.07;;;;;;;;;;10375057;28;20025;-62
2020/12/18 20:51:16;;;;;;;4.13;2.57;;;;;;;;;;10337613;28;20025;-63
2020/12/18 20:56:14;;;;;;;6.97;2.85;;;;;;;;;;10349026;28;20516;-63
2020/12/18 21:01:11;;;;;;;5.90;2.83;;;;;;;;;;10364881;28;20078;-62
2020/12/18 21:06:11;;;;;;;4.53;2.83;;;;;;;;;;10366246;28;20028;-63
2020/12/18 21:11:08;;;;;;;3.67;2.40;;;;;;;;;;10372482;28;20059;-63
2020/12/18 21:16:05;;;;;;;1.70;1.60;;;;;;;;;;10358067;28;20047;-63
2020/12/18 21:21:03;;;;;;;7.70;3.20;;;;;;;;;;10354840;28;20517;-63
2020/12/18 21:26:01;;;;;;;4.67;2.20;;;;;;;;;;10368960;28;20025;-63
2020/12/18 21:30:58;;;;;;;4.30;2.60;;;;;;;;;;10344775;28;20044;-63
2020/12/18 21:35:55;;;;;;;6.13;2.77;;;;;;;;;;10354600;28;20044;-62
2020/12/18 21:40:53;;;;;;;5.50;2.97;;;;;;;;;;10362669;28;20048;-63
2020/12/18 21:45:50;;;;;;;5.13;3.10;;;;;;;;;;10361122;28;20033;-63
2020/12/18 21:50:48;;;;;;;5.13;2.77;;;;;;;;;;10357916;28;20032;-64
2020/12/18 21:55:45;;;;;;;4.70;3.80;;;;;;;;;;10338120;28;20271;-64
2020/12/18 22:00:43;;;;;;;6.73;3.07;;;;;;;;;;10337636;28;20028;-63
2020/12/18 22:05:40;;;;;;;6.90;3.83;;;;;;;;;;10349703;28;20502;-63
2020/12/18 22:10:38;;;;;;;6.10;3.57;;;;;;;;;;10373506;28;20527;-63
2020/12/18 22:15:35;;;;;;;7.93;3.47;;;;;;;;;;10346457;28;20044;-63
2020/12/18 22:20:32;;;;;;;4.60;2.60;;;;;;;;;;10360761;28;20040;-63
2020/12/18 22:25:30;;;;;;;4.27;2.50;;;;;;;;;;10332819;28;20040;-64
2020/12/18 22:30:27;;;;;;;6.13;2.47;;;;;;;;;;10334076;28;20040;-64
2020/12/18 22:35:25;;;;;;;4.67;2.47;;;;;;;;;;10363070;28;20052;-64
2020/12/18 22:40:23;;;;;;;4.57;3.17;;;;;;;;;;10359833;28;20513;-64
2020/12/18 22:45:21;;;;;;;3.93;2.80;;;;;;;;;;10368480;28;20589;-65
2020/12/18 22:50:19;;;;;;;5.00;3.03;;;;;;;;;;10353365;28;20040;-63
2020/12/18 22:55:16;;;;;;;5.10;2.87;;;;;;;;;;10355782;28;20032;-63
2020/12/18 23:00:18;;;;;;;5.13;3.10;;;;;;;;;;10358506;28;20040;-63
2020/12/18 23:05:16;;;;;;;7.75;2.90;;;;;;;;;;10365379;28;20089;-63
2020/12/18 23:10:13;;;;;;;10.15;3.15;;;;;;;;;;10375033;28;20081;-64
2020/12/18 23:15:13;;;;;;;6.07;2.70;;;;;;;;;;10358246;28;20044;-63
2020/12/18 23:20:11;;;;;;;7.65;3.28;;;;;;;;;;10352896;28;20063;-60
2020/12/18 23:25:10;;;;;;;;;;;;;;;;;;10372251;28;20033;-60
2020/12/18 23:30:08;;;;;;;5.07;2.90;;;;;;;;;;10371471;28;19959;-60
2020/12/18 23:35:06;;;;;;;3.05;2.42;;;;;;;;;;10378565;28;20044;-59
2020/12/18 23:40:05;;;;;;;4.55;2.65;;;;;;;;;;10371550;28;20406;-60
2020/12/18 23:45:03;;;;;;;3.35;2.08;;;;;;;;;;10371702;28;20852;-60
2020/12/18 23:50:01;;;;;;;5.85;3.10;;;;;;;;;;10338769;28;20159;-59
2020/12/18 23:54:58;;;;;;;5.25;3.10;;;;;;;;;;10366906;28;20036;-61
2020/12/18 23:59:56;;;;;;;5.53;2.10;;;;;;;;;;10369520;28;20554;-60
